sensor_id;sensor_type;location;lat;lon;timestamp;temperature;humidity
84198;DHT22;74335;42.658;23.396;2023-11-22T00:01:10;24.73;43.33
84198;DHT22;74335;42.658;23.396;2023-11-22T00:03:37;24.75;43.28
84198;DHT22;74335;42.658;23.396;2023-11-22T00:06:06;24.75;43.29
84198;DHT22;74335;42.658;23.396;2023-11-22T00:08:33;24.73;43.29
84198;DHT22;74335;42.658;23.396;2023-11-22T00:11:00;24.76;43.43
84198;DHT22;74335;42.658;23.396;2023-11-22T00:13:27;24.75;43.42
84198;DHT22;74335;42.658;23.396;2023-11-22T00:15:54;24.73;43.40
84198;DHT22;74335;42.658;23.396;2023-11-22T00:18:22;24.72;43.45
84198;DHT22;74335;42.658;23.396;2023-11-22T00:20:49;24.76;43.44
84198;DHT22;74335;42.658;23.396;2023-11-22T00:23:17;24.73;43.41
84198;DHT22;74335;42.658;23.396;2023-11-22T00:25:44;24.75;43.44
84198;DHT22;74335;42.658;23.396;2023-11-22T00:28:11;24.75;43.51
84198;DHT22;74335;42.658;23.396;2023-11-22T00:30:38;24.76;43.52
84198;DHT22;74335;42.658;23.396;2023-11-22T00:33:04;24.75;43.61
84198;DHT22;74335;42.658;23.396;2023-11-22T00:35:31;24.76;43.64
84198;DHT22;74335;42.658;23.396;2023-11-22T00:37:58;24.76;43.69
84198;DHT22;74335;42.658;23.396;2023-11-22T00:40:26;24.76;43.73
84198;DHT22;74335;42.658;23.396;2023-11-22T00:42:53;24.76;43.87
84198;DHT22;74335;42.658;23.396;2023-11-22T00:45:19;24.77;43.93
84198;DHT22;74335;42.658;23.396;2023-11-22T00:47:47;24.77;44.01
84198;DHT22;74335;42.658;23.396;2023-11-22T00:50:13;24.77;44.07
84198;DHT22;74335;42.658;23.396;2023-11-22T00:52:45;24.76;44.23
84198;DHT22;74335;42.658;23.396;2023-11-22T00:55:12;24.79;44.24
84198;DHT22;74335;42.658;23.396;2023-11-22T00:57:40;24.79;44.34
84198;DHT22;74335;42.658;23.396;2023-11-22T01:00:08;24.80;44.38
84198;DHT22;74335;42.658;23.396;2023-11-22T01:02:37;24.77;44.49
84198;DHT22;74335;42.658;23.396;2023-11-22T01:05:05;24.79;44.49
84198;DHT22;74335;42.658;23.396;2023-11-22T01:07:35;24.79;44.66
84198;DHT22;74335;42.658;23.396;2023-11-22T01:10:02;24.79;44.77
84198;DHT22;74335;42.658;23.396;2023-11-22T01:12:28;24.79;44.88
84198;DHT22;74335;42.658;23.396;2023-11-22T01:14:56;24.80;44.99
84198;DHT22;74335;42.658;23.396;2023-11-22T01:17:23;24.82;45.03
84198;DHT22;74335;42.658;23.396;2023-11-22T01:19:50;24.79;45.56
84198;DHT22;74335;42.658;23.396;2023-11-22T01:22:17;24.80;45.46
84198;DHT22;74335;42.658;23.396;2023-11-22T01:24:45;24.79;45.40
84198;DHT22;74335;42.658;23.396;2023-11-22T01:27:11;24.82;45.51
84198;DHT22;74335;42.658;23.396;2023-11-22T01:29:38;24.82;45.71
84198;DHT22;74335;42.658;23.396;2023-11-22T01:32:06;24.80;45.63
84198;DHT22;74335;42.658;23.396;2023-11-22T01:34:33;24.82;45.64
84198;DHT22;74335;42.658;23.396;2023-11-22T01:37:00;24.82;45.77
84198;DHT22;74335;42.658;23.396;2023-11-22T01:39:27;24.84;45.76
84198;DHT22;74335;42.658;23.396;2023-11-22T01:41:53;24.83;45.68
84198;DHT22;74335;42.658;23.396;2023-11-22T01:44:21;24.82;45.68
84198;DHT22;74335;42.658;23.396;2023-11-22T01:46:49;24.82;45.69
84198;DHT22;74335;42.658;23.396;2023-11-22T01:49:17;24.84;45.72
84198;DHT22;74335;42.658;23.396;2023-11-22T01:51:44;24.83;45.71
84198;DHT22;74335;42.658;23.396;2023-11-22T01:54:11;24.83;45.73
84198;DHT22;74335;42.658;23.396;2023-11-22T01:56:38;24.82;45.73
84198;DHT22;74335;42.658;23.396;2023-11-22T01:59:06;24.83;45.75
84198;DHT22;74335;42.658;23.396;2023-11-22T02:01:32;24.82;45.78
84198;DHT22;74335;42.658;23.396;2023-11-22T02:03:59;24.84;45.80
84198;DHT22;74335;42.658;23.396;2023-11-22T02:06:27;24.82;45.88
84198;DHT22;74335;42.658;23.396;2023-11-22T02:08:56;24.83;46.01
84198;DHT22;74335;42.658;23.396;2023-11-22T02:11:22;24.82;45.99
84198;DHT22;74335;42.658;23.396;2023-11-22T02:13:49;24.84;46.02
84198;DHT22;74335;42.658;23.396;2023-11-22T02:16:16;24.82;46.06
84198;DHT22;74335;42.658;23.396;2023-11-22T02:18:44;24.83;46.07
84198;DHT22;74335;42.658;23.396;2023-11-22T02:21:11;24.82;46.09
84198;DHT22;74335;42.658;23.396;2023-11-22T02:23:39;24.83;46.15
84198;DHT22;74335;42.658;23.396;2023-11-22T02:26:05;24.80;46.14
84198;DHT22;74335;42.658;23.396;2023-11-22T02:28:32;24.80;46.12
84198;DHT22;74335;42.658;23.396;2023-11-22T02:30:59;24.84;46.17
84198;DHT22;74335;42.658;23.396;2023-11-22T02:33:26;24.83;46.35
84198;DHT22;74335;42.658;23.396;2023-11-22T02:35:52;24.87;46.28
84198;DHT22;74335;42.658;23.396;2023-11-22T02:38:20;24.86;46.33
84198;DHT22;74335;42.658;23.396;2023-11-22T02:40:48;24.86;46.35
84198;DHT22;74335;42.658;23.396;2023-11-22T02:43:15;24.86;46.32
84198;DHT22;74335;42.658;23.396;2023-11-22T02:45:43;24.89;46.38
84198;DHT22;74335;42.658;23.396;2023-11-22T02:48:09;24.89;46.33
84198;DHT22;74335;42.658;23.396;2023-11-22T02:50:36;24.87;46.40
84198;DHT22;74335;42.658;23.396;2023-11-22T02:53:03;24.87;46.45
84198;DHT22;74335;42.658;23.396;2023-11-22T02:55:30;24.87;46.47
84198;DHT22;74335;42.658;23.396;2023-11-22T02:57:58;24.87;46.39
84198;DHT22;74335;42.658;23.396;2023-11-22T03:00:25;24.89;46.36
84198;DHT22;74335;42.658;23.396;2023-11-22T03:02:54;24.87;46.36
84198;DHT22;74335;42.658;23.396;2023-11-22T03:05:21;24.89;46.40
84198;DHT22;74335;42.658;23.396;2023-11-22T03:07:49;24.89;46.51
84198;DHT22;74335;42.658;23.396;2023-11-22T03:10:17;24.90;46.54
84198;DHT22;74335;42.658;23.396;2023-11-22T03:12:44;24.91;46.63
84198;DHT22;74335;42.658;23.396;2023-11-22T03:15:12;24.87;46.63
84198;DHT22;74335;42.658;23.396;2023-11-22T03:17:39;24.91;46.69
84198;DHT22;74335;42.658;23.396;2023-11-22T03:20:07;24.89;46.72
84198;DHT22;74335;42.658;23.396;2023-11-22T03:22:36;24.91;46.73
84198;DHT22;74335;42.658;23.396;2023-11-22T03:25:04;24.91;46.80
84198;DHT22;74335;42.658;23.396;2023-11-22T03:27:30;24.90;46.84
84198;DHT22;74335;42.658;23.396;2023-11-22T03:29:57;24.90;46.88
84198;DHT22;74335;42.658;23.396;2023-11-22T03:32:25;24.90;46.91
84198;DHT22;74335;42.658;23.396;2023-11-22T03:34:52;24.90;46.93
84198;DHT22;74335;42.658;23.396;2023-11-22T03:37:19;24.90;46.95
84198;DHT22;74335;42.658;23.396;2023-11-22T03:39:46;24.89;46.91
84198;DHT22;74335;42.658;23.396;2023-11-22T03:42:14;24.89;46.94
84198;DHT22;74335;42.658;23.396;2023-11-22T03:44:42;24.91;46.91
84198;DHT22;74335;42.658;23.396;2023-11-22T03:47:09;24.90;46.90
84198;DHT22;74335;42.658;23.396;2023-11-22T03:49:39;24.91;46.94
84198;DHT22;74335;42.658;23.396;2023-11-22T03:52:05;24.89;46.94
84198;DHT22;74335;42.658;23.396;2023-11-22T03:54:33;24.89;46.98
84198;DHT22;74335;42.658;23.396;2023-11-22T03:57:00;24.90;46.93
84198;DHT22;74335;42.658;23.396;2023-11-22T03:59:27;24.91;46.98
84198;DHT22;74335;42.658;23.396;2023-11-22T04:01:54;24.89;47.03
84198;DHT22;74335;42.658;23.396;2023-11-22T04:04:20;24.89;47.17
84198;DHT22;74335;42.658;23.396;2023-11-22T04:06:49;24.90;47.37
84198;DHT22;74335;42.658;23.396;2023-11-22T04:09:16;24.90;47.24
84198;DHT22;74335;42.658;23.396;2023-11-22T04:11:43;24.90;47.20
84198;DHT22;74335;42.658;23.396;2023-11-22T04:14:09;24.87;47.15
84198;DHT22;74335;42.658;23.396;2023-11-22T04:16:36;24.89;47.27
84198;DHT22;74335;42.658;23.396;2023-11-22T04:19:03;24.87;47.30
84198;DHT22;74335;42.658;23.396;2023-11-22T04:21:30;24.87;47.34
84198;DHT22;74335;42.658;23.396;2023-11-22T04:23:58;24.87;47.35
84198;DHT22;74335;42.658;23.396;2023-11-22T04:26:25;24.87;47.46
84198;DHT22;74335;42.658;23.396;2023-11-22T04:28:52;24.86;47.45
84198;DHT22;74335;42.658;23.396;2023-11-22T04:31:18;24.84;47.56
84198;DHT22;74335;42.658;23.396;2023-11-22T04:33:45;24.87;47.61
84198;DHT22;74335;42.658;23.396;2023-11-22T04:36:12;24.84;47.61
84198;DHT22;74335;42.658;23.396;2023-11-22T04:38:38;24.83;47.68
84198;DHT22;74335;42.658;23.396;2023-11-22T04:41:06;24.86;47.82
84198;DHT22;74335;42.658;23.396;2023-11-22T04:43:33;24.83;47.88
84198;DHT22;74335;42.658;23.396;2023-11-22T04:46:00;24.82;47.97
84198;DHT22;74335;42.658;23.396;2023-11-22T04:48:26;24.80;47.99
84198;DHT22;74335;42.658;23.396;2023-11-22T04:50:53;24.80;48.02
84198;DHT22;74335;42.658;23.396;2023-11-22T04:53:20;24.83;48.08
84198;DHT22;74335;42.658;23.396;2023-11-22T04:55:46;24.84;48.06
84198;DHT22;74335;42.658;23.396;2023-11-22T04:58:15;24.82;48.09
84198;DHT22;74335;42.658;23.396;2023-11-22T05:00:42;24.82;48.59
84198;DHT22;74335;42.658;23.396;2023-11-22T05:03:09;24.87;48.21
84198;DHT22;74335;42.658;23.396;2023-11-22T05:05:36;24.84;46.00
84198;DHT22;74335;42.658;23.396;2023-11-22T05:08:03;24.49;41.03
84198;DHT22;74335;42.658;23.396;2023-11-22T05:10:29;24.08;38.50
84198;DHT22;74335;42.658;23.396;2023-11-22T05:12:57;23.62;36.37
84198;DHT22;74335;42.658;23.396;2023-11-22T05:15:26;23.12;35.52
84198;DHT22;74335;42.658;23.396;2023-11-22T05:17:53;22.75;35.64
84198;DHT22;74335;42.658;23.396;2023-11-22T05:20:20;22.39;35.70
84198;DHT22;74335;42.658;23.396;2023-11-22T05:22:47;22.05;35.77
84198;DHT22;74335;42.658;23.396;2023-11-22T05:25:13;21.79;35.88
84198;DHT22;74335;42.658;23.396;2023-11-22T05:27:40;21.55;36.26
84198;DHT22;74335;42.658;23.396;2023-11-22T05:30:08;21.31;36.32
84198;DHT22;74335;42.658;23.396;2023-11-22T05:32:37;21.15;37.11
84198;DHT22;74335;42.658;23.396;2023-11-22T05:35:04;21.19;37.76
84198;DHT22;74335;42.658;23.396;2023-11-22T05:37:35;21.47;39.93
84198;DHT22;74335;42.658;23.396;2023-11-22T05:40:02;21.79;41.55
84198;DHT22;74335;42.658;23.396;2023-11-22T05:42:30;22.13;42.91
84198;DHT22;74335;42.658;23.396;2023-11-22T05:44:56;22.41;43.33
84198;DHT22;74335;42.658;23.396;2023-11-22T05:47:23;22.69;43.60
84198;DHT22;74335;42.658;23.396;2023-11-22T05:49:52;22.91;43.14
84198;DHT22;74335;42.658;23.396;2023-11-22T05:52:18;23.08;42.93
84198;DHT22;74335;42.658;23.396;2023-11-22T05:54:45;23.25;42.76
84198;DHT22;74335;42.658;23.396;2023-11-22T05:57:15;23.39;42.55
84198;DHT22;74335;42.658;23.396;2023-11-22T05:59:43;23.50;42.37
84198;DHT22;74335;42.658;23.396;2023-11-22T06:02:10;23.62;42.12
84198;DHT22;74335;42.658;23.396;2023-11-22T06:04:36;23.67;42.00
84198;DHT22;74335;42.658;23.396;2023-11-22T06:07:04;23.74;41.85
84198;DHT22;74335;42.658;23.396;2023-11-22T06:09:31;23.85;41.67
84198;DHT22;74335;42.658;23.396;2023-11-22T06:11:59;23.96;41.51
84198;DHT22;74335;42.658;23.396;2023-11-22T06:14:26;24.05;41.23
84198;DHT22;74335;42.658;23.396;2023-11-22T06:16:52;24.11;40.67
84198;DHT22;74335;42.658;23.396;2023-11-22T06:19:19;24.15;40.67
84198;DHT22;74335;42.658;23.396;2023-11-22T06:21:46;24.26;40.64
84198;DHT22;74335;42.658;23.396;2023-11-22T06:24:14;24.33;40.54
84198;DHT22;74335;42.658;23.396;2023-11-22T06:26:42;24.39;40.55
84198;DHT22;74335;42.658;23.396;2023-11-22T06:29:11;24.48;40.56
84198;DHT22;74335;42.658;23.396;2023-11-22T06:31:38;24.53;40.51
84198;DHT22;74335;42.658;23.396;2023-11-22T06:34:05;24.56;40.52
84198;DHT22;74335;42.658;23.396;2023-11-22T06:36:32;24.59;40.45
84198;DHT22;74335;42.658;23.396;2023-11-22T06:38:59;24.59;40.45
84198;DHT22;74335;42.658;23.396;2023-11-22T06:41:27;24.59;40.39
84198;DHT22;74335;42.658;23.396;2023-11-22T06:43:54;24.62;40.48
84198;DHT22;74335;42.658;23.396;2023-11-22T06:46:21;24.69;40.47
84198;DHT22;74335;42.658;23.396;2023-11-22T06:48:49;24.76;40.44
84198;DHT22;74335;42.658;23.396;2023-11-22T06:51:16;24.84;40.40
84198;DHT22;74335;42.658;23.396;2023-11-22T06:53:43;24.90;40.39
84198;DHT22;74335;42.658;23.396;2023-11-22T06:56:10;24.97;40.38
84198;DHT22;74335;42.658;23.396;2023-11-22T06:58:38;25.03;40.31
84198;DHT22;74335;42.658;23.396;2023-11-22T07:01:05;25.08;40.29
84198;DHT22;74335;42.658;23.396;2023-11-22T07:03:32;25.14;40.24
84198;DHT22;74335;42.658;23.396;2023-11-22T07:05:59;25.20;40.26
84198;DHT22;74335;42.658;23.396;2023-11-22T07:08:26;25.24;40.19
84198;DHT22;74335;42.658;23.396;2023-11-22T07:10:53;25.27;40.24
84198;DHT22;74335;42.658;23.396;2023-11-22T07:13:22;25.31;40.21
84198;DHT22;74335;42.658;23.396;2023-11-22T07:15:51;25.34;40.17
84198;DHT22;74335;42.658;23.396;2023-11-22T07:18:19;25.39;40.19
84198;DHT22;74335;42.658;23.396;2023-11-22T07:20:49;25.41;40.16
84198;DHT22;74335;42.658;23.396;2023-11-22T07:23:16;25.44;40.20
84198;DHT22;74335;42.658;23.396;2023-11-22T07:25:45;25.47;40.24
84198;DHT22;74335;42.658;23.396;2023-11-22T07:28:12;25.51;40.26
84198;DHT22;74335;42.658;23.396;2023-11-22T07:30:38;25.52;40.21
84198;DHT22;74335;42.658;23.396;2023-11-22T07:33:08;25.58;40.19
84198;DHT22;74335;42.658;23.396;2023-11-22T07:35:36;25.58;40.22
84198;DHT22;74335;42.658;23.396;2023-11-22T07:38:04;25.61;40.18
84198;DHT22;74335;42.658;23.396;2023-11-22T07:40:33;25.65;40.21
84198;DHT22;74335;42.658;23.396;2023-11-22T07:43:00;25.71;40.18
84198;DHT22;74335;42.658;23.396;2023-11-22T07:45:28;25.74;40.19
84198;DHT22;74335;42.658;23.396;2023-11-22T07:47:54;25.74;40.24
84198;DHT22;74335;42.658;23.396;2023-11-22T07:50:26;25.76;40.29
84198;DHT22;74335;42.658;23.396;2023-11-22T07:52:53;25.74;40.31
84198;DHT22;74335;42.658;23.396;2023-11-22T07:55:20;25.75;40.30
84198;DHT22;74335;42.658;23.396;2023-11-22T07:57:48;25.76;40.39
84198;DHT22;74335;42.658;23.396;2023-11-22T08:00:19;25.71;40.60
84198;DHT22;74335;42.658;23.396;2023-11-22T08:02:45;25.65;40.47
84198;DHT22;74335;42.658;23.396;2023-11-22T08:05:12;25.59;40.22
84198;DHT22;74335;42.658;23.396;2023-11-22T08:07:42;25.54;40.06
84198;DHT22;74335;42.658;23.396;2023-11-22T08:10:11;25.52;39.95
84198;DHT22;74335;42.658;23.396;2023-11-22T08:12:44;25.45;40.06
84198;DHT22;74335;42.658;23.396;2023-11-22T08:15:13;25.42;40.15
84198;DHT22;74335;42.658;23.396;2023-11-22T08:17:41;25.38;40.31
84198;DHT22;74335;42.658;23.396;2023-11-22T08:20:08;25.39;40.46
84198;DHT22;74335;42.658;23.396;2023-11-22T08:22:38;25.38;40.47
84198;DHT22;74335;42.658;23.396;2023-11-22T08:25:08;25.37;40.44
84198;DHT22;74335;42.658;23.396;2023-11-22T08:27:38;25.35;40.51
84198;DHT22;74335;42.658;23.396;2023-11-22T08:30:06;25.34;40.53
84198;DHT22;74335;42.658;23.396;2023-11-22T08:32:41;25.31;40.58
84198;DHT22;74335;42.658;23.396;2023-11-22T08:35:09;25.33;40.62
84198;DHT22;74335;42.658;23.396;2023-11-22T08:37:39;25.27;40.68
84198;DHT22;74335;42.658;23.396;2023-11-22T08:40:10;25.26;40.73
84198;DHT22;74335;42.658;23.396;2023-11-22T08:42:39;25.24;40.83
84198;DHT22;74335;42.658;23.396;2023-11-22T08:45:08;25.21;40.92
84198;DHT22;74335;42.658;23.396;2023-11-22T08:47:37;25.20;40.98
84198;DHT22;74335;42.658;23.396;2023-11-22T08:50:06;25.18;41.05
84198;DHT22;74335;42.658;23.396;2023-11-22T08:52:33;25.17;41.11
84198;DHT22;74335;42.658;23.396;2023-11-22T08:55:02;25.16;41.18
84198;DHT22;74335;42.658;23.396;2023-11-22T08:57:30;25.14;41.26
84198;DHT22;74335;42.658;23.396;2023-11-22T08:59:57;25.11;41.27
84198;DHT22;74335;42.658;23.396;2023-11-22T09:02:31;25.10;41.32
84198;DHT22;74335;42.658;23.396;2023-11-22T09:04:58;25.08;41.39
84198;DHT22;74335;42.658;23.396;2023-11-22T09:07:24;25.07;41.46
84198;DHT22;74335;42.658;23.396;2023-11-22T09:09:51;25.06;41.57
84198;DHT22;74335;42.658;23.396;2023-11-22T09:12:18;25.06;41.57
84198;DHT22;74335;42.658;23.396;2023-11-22T09:14:46;25.04;41.65
84198;DHT22;74335;42.658;23.396;2023-11-22T09:17:13;25.03;41.65
84198;DHT22;74335;42.658;23.396;2023-11-22T09:19:40;24.98;41.71
84198;DHT22;74335;42.658;23.396;2023-11-22T09:22:07;24.98;41.74
84198;DHT22;74335;42.658;23.396;2023-11-22T09:24:33;25.00;41.84
84198;DHT22;74335;42.658;23.396;2023-11-22T09:27:02;24.97;41.95
84198;DHT22;74335;42.658;23.396;2023-11-22T09:29:30;24.96;41.91
84198;DHT22;74335;42.658;23.396;2023-11-22T09:31:59;24.93;41.93
84198;DHT22;74335;42.658;23.396;2023-11-22T09:34:27;24.93;42.07
84198;DHT22;74335;42.658;23.396;2023-11-22T09:36:54;24.93;42.08
84198;DHT22;74335;42.658;23.396;2023-11-22T09:39:21;24.89;42.17
84198;DHT22;74335;42.658;23.396;2023-11-22T09:41:50;24.89;42.30
84198;DHT22;74335;42.658;23.396;2023-11-22T09:44:18;24.87;42.39
84198;DHT22;74335;42.658;23.396;2023-11-22T09:46:47;24.87;42.41
84198;DHT22;74335;42.658;23.396;2023-11-22T09:49:20;24.87;42.48
84198;DHT22;74335;42.658;23.396;2023-11-22T09:51:51;24.86;42.49
84198;DHT22;74335;42.658;23.396;2023-11-22T09:54:23;24.86;42.43
84198;DHT22;74335;42.658;23.396;2023-11-22T09:56:57;24.86;42.44
84198;DHT22;74335;42.658;23.396;2023-11-22T09:59:27;24.86;42.48
84198;DHT22;74335;42.658;23.396;2023-11-22T10:01:54;24.84;42.50
84198;DHT22;74335;42.658;23.396;2023-11-22T10:04:22;24.86;42.52
84198;DHT22;74335;42.658;23.396;2023-11-22T10:06:50;24.84;42.51
84198;DHT22;74335;42.658;23.396;2023-11-22T10:09:18;24.86;42.51
84198;DHT22;74335;42.658;23.396;2023-11-22T10:11:45;24.87;42.55
84198;DHT22;74335;42.658;23.396;2023-11-22T10:14:22;24.86;42.64
84198;DHT22;74335;42.658;23.396;2023-11-22T10:16:58;24.84;42.63
84198;DHT22;74335;42.658;23.396;2023-11-22T10:19:26;24.86;42.64
84198;DHT22;74335;42.658;23.396;2023-11-22T10:22:03;24.86;42.68
84198;DHT22;74335;42.658;23.396;2023-11-22T10:24:30;24.86;42.67
84198;DHT22;74335;42.658;23.396;2023-11-22T10:26:58;24.84;42.72
84198;DHT22;74335;42.658;23.396;2023-11-22T10:29:25;24.84;42.73
84198;DHT22;74335;42.658;23.396;2023-11-22T10:31:52;24.87;42.69
84198;DHT22;74335;42.658;23.396;2023-11-22T10:34:20;24.90;42.77
84198;DHT22;74335;42.658;23.396;2023-11-22T10:36:48;24.87;42.77
84198;DHT22;74335;42.658;23.396;2023-11-22T10:39:18;24.86;42.82
84198;DHT22;74335;42.658;23.396;2023-11-22T10:41:45;24.86;42.78
84198;DHT22;74335;42.658;23.396;2023-11-22T10:44:12;24.87;42.81
84198;DHT22;74335;42.658;23.396;2023-11-22T10:46:41;24.86;42.80
84198;DHT22;74335;42.658;23.396;2023-11-22T10:49:07;24.87;42.88
84198;DHT22;74335;42.658;23.396;2023-11-22T10:51:36;24.89;42.92
84198;DHT22;74335;42.658;23.396;2023-11-22T10:54:07;24.87;42.97
84198;DHT22;74335;42.658;23.396;2023-11-22T10:56:37;24.87;42.99
84198;DHT22;74335;42.658;23.396;2023-11-22T10:59:10;24.87;43.11
84198;DHT22;74335;42.658;23.396;2023-11-22T11:01:44;24.86;43.12
84198;DHT22;74335;42.658;23.396;2023-11-22T11:04:19;24.87;43.18
84198;DHT22;74335;42.658;23.396;2023-11-22T11:06:50;24.84;43.28
84198;DHT22;74335;42.658;23.396;2023-11-22T11:09:19;24.89;43.27
84198;DHT22;74335;42.658;23.396;2023-11-22T11:11:50;24.91;43.14
84198;DHT22;74335;42.658;23.396;2023-11-22T11:14:17;24.93;43.05
84198;DHT22;74335;42.658;23.396;2023-11-22T11:29:49;13.70;59.80
84198;DHT22;74335;42.658;23.396;2023-11-22T11:32:30;14.01;59.94
84198;DHT22;74335;42.658;23.396;2023-11-22T11:34:57;14.09;59.14
84198;DHT22;74335;42.658;23.396;2023-11-22T11:37:25;12.71;64.23
84198;DHT22;74335;42.658;23.396;2023-11-22T11:39:52;11.82;68.10
84198;DHT22;74335;42.658;23.396;2023-11-22T11:42:19;11.35;70.47
84198;DHT22;74335;42.658;23.396;2023-11-22T11:45:04;10.84;72.70
84198;DHT22;74335;42.658;23.396;2023-11-22T11:47:34;11.00;72.24
84198;DHT22;74335;42.658;23.396;2023-11-22T11:50:01;10.97;72.43
84198;DHT22;74335;42.658;23.396;2023-11-22T11:52:28;10.94;72.25
84198;DHT22;74335;42.658;23.396;2023-11-22T11:54:56;10.86;72.76
84198;DHT22;74335;42.658;23.396;2023-11-22T11:57:23;10.70;73.78
84198;DHT22;74335;42.658;23.396;2023-11-22T11:59:51;10.77;73.67
84198;DHT22;74335;42.658;23.396;2023-11-22T12:02:22;10.72;73.96
84198;DHT22;74335;42.658;23.396;2023-11-22T12:04:49;10.73;73.58
84198;DHT22;74335;42.658;23.396;2023-11-22T12:07:16;10.86;73.24
84198;DHT22;74335;42.658;23.396;2023-11-22T12:09:43;10.67;72.65
84198;DHT22;74335;42.658;23.396;2023-11-22T12:12:12;10.75;72.68
84198;DHT22;74335;42.658;23.396;2023-11-22T12:14:39;10.63;73.32
84198;DHT22;74335;42.658;23.396;2023-11-22T12:17:06;10.52;73.43
84198;DHT22;74335;42.658;23.396;2023-11-22T12:19:34;10.53;74.13
84198;DHT22;74335;42.658;23.396;2023-11-22T12:32:24;10.52;74.58
84198;DHT22;74335;42.658;23.396;2023-11-22T12:34:53;10.49;74.86
84198;DHT22;74335;42.658;23.396;2023-11-22T12:37:20;10.79;73.72
84198;DHT22;74335;42.658;23.396;2023-11-22T12:39:47;10.80;73.83
84198;DHT22;74335;42.658;23.396;2023-11-22T12:42:14;10.66;74.70
84198;DHT22;74335;42.658;23.396;2023-11-22T12:44:48;10.62;74.43
84198;DHT22;74335;42.658;23.396;2023-11-22T12:47:15;10.56;74.49
84198;DHT22;74335;42.658;23.396;2023-11-22T12:49:45;10.70;73.83
84198;DHT22;74335;42.658;23.396;2023-11-22T12:52:13;10.52;74.76
84198;DHT22;74335;42.658;23.396;2023-11-22T12:54:40;10.65;74.22
84198;DHT22;74335;42.658;23.396;2023-11-22T12:57:10;10.49;74.24
84198;DHT22;74335;42.658;23.396;2023-11-22T12:59:38;10.56;74.23
84198;DHT22;74335;42.658;23.396;2023-11-22T13:02:05;10.53;73.84
84198;DHT22;74335;42.658;23.396;2023-11-22T13:04:32;10.50;73.96
84198;DHT22;74335;42.658;23.396;2023-11-22T13:06:59;10.69;72.67
84198;DHT22;74335;42.658;23.396;2023-11-22T13:09:27;10.79;72.74
84198;DHT22;74335;42.658;23.396;2023-11-22T13:11:57;10.67;73.49
84198;DHT22;74335;42.658;23.396;2023-11-22T13:14:24;10.53;74.40
84198;DHT22;74335;42.658;23.396;2023-11-22T13:16:56;10.77;73.53
84198;DHT22;74335;42.658;23.396;2023-11-22T13:19:23;10.63;74.22
84198;DHT22;74335;42.658;23.396;2023-11-22T13:21:50;10.56;74.41
84198;DHT22;74335;42.658;23.396;2023-11-22T13:24:17;10.52;74.81
84198;DHT22;74335;42.658;23.396;2023-11-22T13:26:47;10.56;74.85
84198;DHT22;74335;42.658;23.396;2023-11-22T13:29:14;10.59;75.00
84198;DHT22;74335;42.658;23.396;2023-11-22T13:31:40;10.65;74.77
84198;DHT22;74335;42.658;23.396;2023-11-22T13:34:07;10.77;74.45
84198;DHT22;74335;42.658;23.396;2023-11-22T13:36:34;10.96;73.49
84198;DHT22;74335;42.658;23.396;2023-11-22T13:39:00;10.93;73.74
84198;DHT22;74335;42.658;23.396;2023-11-22T13:41:30;11.03;73.71
84198;DHT22;74335;42.658;23.396;2023-11-22T13:43:59;10.92;74.01
84198;DHT22;74335;42.658;23.396;2023-11-22T13:46:26;10.90;74.09
84198;DHT22;74335;42.658;23.396;2023-11-22T13:48:53;10.94;73.93
84198;DHT22;74335;42.658;23.396;2023-11-22T13:51:19;10.90;74.50
84198;DHT22;74335;42.658;23.396;2023-11-22T13:53:46;10.83;74.67
84198;DHT22;74335;42.658;23.396;2023-11-22T13:56:18;10.76;74.77
84198;DHT22;74335;42.658;23.396;2023-11-22T13:58:45;10.76;75.02
84198;DHT22;74335;42.658;23.396;2023-11-22T14:01:13;10.69;75.43
84198;DHT22;74335;42.658;23.396;2023-11-22T14:03:46;10.67;75.88
84198;DHT22;74335;42.658;23.396;2023-11-22T14:06:13;10.72;75.56
84198;DHT22;74335;42.658;23.396;2023-11-22T14:08:42;10.72;75.23
84198;DHT22;74335;42.658;23.396;2023-11-22T14:11:10;10.83;74.58
84198;DHT22;74335;42.658;23.396;2023-11-22T14:13:37;10.65;75.46
84198;DHT22;74335;42.658;23.396;2023-11-22T14:16:05;10.72;75.36
84198;DHT22;74335;42.658;23.396;2023-11-22T14:18:33;10.72;75.29
84198;DHT22;74335;42.658;23.396;2023-11-22T14:21:00;10.70;75.21
84198;DHT22;74335;42.658;23.396;2023-11-22T14:23:28;10.66;74.69
84198;DHT22;74335;42.658;23.396;2023-11-22T14:25:55;10.66;74.93
84198;DHT22;74335;42.658;23.396;2023-11-22T14:28:22;10.55;75.38
84198;DHT22;74335;42.658;23.396;2023-11-22T14:30:49;10.45;76.20
84198;DHT22;74335;42.658;23.396;2023-11-22T14:33:19;10.37;76.74
84198;DHT22;74335;42.658;23.396;2023-11-22T14:35:47;10.28;76.89
84198;DHT22;74335;42.658;23.396;2023-11-22T14:38:14;10.31;77.06
84198;DHT22;74335;42.658;23.396;2023-11-22T14:40:43;10.31;77.15
84198;DHT22;74335;42.658;23.396;2023-11-22T14:43:09;10.14;77.41
84198;DHT22;74335;42.658;23.396;2023-11-22T14:45:36;10.12;77.21
84198;DHT22;74335;42.658;23.396;2023-11-22T14:48:05;10.11;76.90
84198;DHT22;74335;42.658;23.396;2023-11-22T14:50:32;10.04;77.31
84198;DHT22;74335;42.658;23.396;2023-11-22T14:53:01;10.04;77.37
84198;DHT22;74335;42.658;23.396;2023-11-22T14:55:28;10.00;77.70
84198;DHT22;74335;42.658;23.396;2023-11-22T14:57:55;9.90;77.88
84198;DHT22;74335;42.658;23.396;2023-11-22T15:00:24;9.93;78.13
84198;DHT22;74335;42.658;23.396;2023-11-22T15:02:51;9.94;78.01
84198;DHT22;74335;42.658;23.396;2023-11-22T15:05:21;9.98;77.79
84198;DHT22;74335;42.658;23.396;2023-11-22T15:07:49;9.88;78.14
84198;DHT22;74335;42.658;23.396;2023-11-22T15:10:21;9.97;77.98
84198;DHT22;74335;42.658;23.396;2023-11-22T15:12:48;10.14;76.95
84198;DHT22;74335;42.658;23.396;2023-11-22T15:15:16;10.15;76.78
84198;DHT22;74335;42.658;23.396;2023-11-22T15:17:43;10.12;76.85
84198;DHT22;74335;42.658;23.396;2023-11-22T15:20:11;10.18;76.79
84198;DHT22;74335;42.658;23.396;2023-11-22T15:22:41;10.11;76.97
84198;DHT22;74335;42.658;23.396;2023-11-22T15:25:08;10.09;76.94
84198;DHT22;74335;42.658;23.396;2023-11-22T15:27:37;10.14;76.40
84198;DHT22;74335;42.658;23.396;2023-11-22T15:30:06;10.05;76.94
84198;DHT22;74335;42.658;23.396;2023-11-22T15:32:33;10.01;77.07
84198;DHT22;74335;42.658;23.396;2023-11-22T15:35:00;10.00;77.17
84198;DHT22;74335;42.658;23.396;2023-11-22T15:37:28;9.97;77.42
84198;DHT22;74335;42.658;23.396;2023-11-22T15:39:55;10.02;77.44
84198;DHT22;74335;42.658;23.396;2023-11-22T15:42:22;9.98;77.80
84198;DHT22;74335;42.658;23.396;2023-11-22T15:44:50;9.98;77.65